createdAt,value
2023-05-15T00:00:35.707Z,32.86
2023-05-15T00:01:35.704Z,32.93
2023-05-15T00:02:35.834Z,32.86
2023-05-15T00:03:35.841Z,32.92
2023-05-15T00:04:35.815Z,32.90
2023-05-15T00:05:35.781Z,32.85
2023-05-15T00:06:35.841Z,32.85
2023-05-15T00:07:35.848Z,32.91
2023-05-15T00:08:35.923Z,32.90
2023-05-15T00:09:35.895Z,32.85
2023-05-15T00:10:35.974Z,32.89
2023-05-15T00:11:35.968Z,32.90
2023-05-15T00:12:36.003Z,32.89
2023-05-15T00:13:36.014Z,32.89
2023-05-15T00:14:36.050Z,32.90
2023-05-15T00:15:36.101Z,32.90
2023-05-15T00:16:36.238Z,32.88
2023-05-15T00:17:36.222Z,32.92
2023-05-15T00:18:36.183Z,32.86
2023-05-15T00:19:36.178Z,32.85
2023-05-15T00:20:36.226Z,32.83
2023-05-15T00:21:36.242Z,32.84
2023-05-15T00:22:36.266Z,32.85
2023-05-15T00:23:36.281Z,32.89
2023-05-15T00:24:36.293Z,32.90
2023-05-15T00:25:36.339Z,32.86
2023-05-15T00:26:36.354Z,32.86
2023-05-15T00:27:36.393Z,32.90
2023-05-15T00:28:36.384Z,32.87
2023-05-15T00:29:36.445Z,32.82
2023-05-15T00:30:36.439Z,32.90
2023-05-15T00:31:36.474Z,32.84
2023-05-15T00:32:36.540Z,32.89
2023-05-15T00:33:36.528Z,32.85
2023-05-15T00:34:36.567Z,32.84
2023-05-15T00:35:36.575Z,32.86
2023-05-15T00:36:36.621Z,32.89
2023-05-15T00:37:36.628Z,32.82
2023-05-15T00:38:36.662Z,32.90
2023-05-15T00:39:36.707Z,32.87
2023-05-15T00:40:36.722Z,32.85
2023-05-15T00:41:36.718Z,32.90
2023-05-15T00:42:36.825Z,32.89
2023-05-15T00:43:36.778Z,32.89
2023-05-15T00:44:36.858Z,32.87
2023-05-15T00:45:36.857Z,32.86
2023-05-15T00:46:36.940Z,32.83
2023-05-15T00:47:36.998Z,32.84
2023-05-15T00:48:36.989Z,32.90
2023-05-15T00:49:36.990Z,32.89
2023-05-15T00:50:37.029Z,32.90
2023-05-15T00:51:37.061Z,32.87
2023-05-15T00:52:37.148Z,32.85
2023-05-15T00:53:37.130Z,32.87
2023-05-15T00:54:37.120Z,32.86
2023-05-15T00:55:37.179Z,32.87
2023-05-15T00:56:37.171Z,32.89
2023-05-15T00:57:37.208Z,32.86
2023-05-15T00:58:37.209Z,32.84
2023-05-15T00:59:37.259Z,32.84
2023-05-15T01:00:37.283Z,32.86
2023-05-15T01:01:37.314Z,32.84
2023-05-15T01:02:37.333Z,32.89
2023-05-15T01:03:37.374Z,32.87
2023-05-15T01:04:38.245Z,32.84
2023-05-15T01:05:37.388Z,32.90
2023-05-15T01:06:37.443Z,32.87
2023-05-15T01:07:37.461Z,32.86
2023-05-15T01:08:37.460Z,32.84
2023-05-15T01:09:37.485Z,32.86
2023-05-15T01:10:37.681Z,32.83
2023-05-15T01:11:37.598Z,32.90
2023-05-15T01:12:37.592Z,32.86
2023-05-15T01:13:37.620Z,32.87
2023-05-15T01:14:37.666Z,32.91
2023-05-15T01:15:37.673Z,32.89
2023-05-15T01:16:37.695Z,32.86
2023-05-15T01:17:37.780Z,32.87
2023-05-15T01:18:37.882Z,32.84
2023-05-15T01:19:37.895Z,32.89
2023-05-15T01:20:37.815Z,32.87
2023-05-15T01:21:37.843Z,32.86
2023-05-15T01:22:37.885Z,32.87
2023-05-15T01:23:37.924Z,32.90
2023-05-15T01:24:38.054Z,32.87
2023-05-15T01:25:38.009Z,32.90
2023-05-15T01:26:38.758Z,32.86
2023-05-15T01:27:38.029Z,32.87
2023-05-15T01:28:38.076Z,32.84
2023-05-15T01:29:38.113Z,32.88
2023-05-15T01:30:38.138Z,32.89
2023-05-15T01:31:38.224Z,32.87
2023-05-15T01:32:38.248Z,32.84
2023-05-15T01:33:38.242Z,32.89
2023-05-15T01:34:38.305Z,32.87
2023-05-15T01:35:38.279Z,32.90
2023-05-15T01:36:38.321Z,32.89
2023-05-15T01:37:38.324Z,32.89
2023-05-15T01:38:38.393Z,32.86
2023-05-15T01:39:38.402Z,32.87
2023-05-15T01:40:38.445Z,32.89
2023-05-15T01:41:38.465Z,32.88
2023-05-15T01:42:38.516Z,32.91
2023-05-15T01:43:38.512Z,32.88
2023-05-15T01:44:38.534Z,32.89
2023-05-15T01:45:38.597Z,32.87
2023-05-15T01:46:38.673Z,32.91
2023-05-15T01:47:38.694Z,32.90
2023-05-15T01:48:38.647Z,32.84
2023-05-15T01:49:38.714Z,32.87
2023-05-15T01:50:38.729Z,32.87
2023-05-15T01:51:38.727Z,32.88
2023-05-15T01:52:38.781Z,32.87
2023-05-15T01:53:38.812Z,32.86
2023-05-15T01:54:38.843Z,32.90
2023-05-15T01:55:38.849Z,32.91
2023-05-15T01:56:38.911Z,32.81
2023-05-15T01:57:38.940Z,32.87
2023-05-15T01:58:38.946Z,32.86
2023-05-15T01:59:39.000Z,32.84
2023-05-15T02:00:39.034Z,32.88
2023-05-15T02:01:39.104Z,32.86
2023-05-15T02:02:39.119Z,32.90
2023-05-15T02:03:39.168Z,32.87
2023-05-15T02:04:39.161Z,32.89
2023-05-15T02:05:39.235Z,32.91
2023-05-15T02:06:39.198Z,32.90
2023-05-15T02:07:39.253Z,32.88
2023-05-15T02:08:39.299Z,32.88
2023-05-15T02:09:39.341Z,32.84
2023-05-15T02:10:39.357Z,32.91
2023-05-15T02:11:39.442Z,32.87
2023-05-15T02:12:39.453Z,32.89
2023-05-15T02:13:39.555Z,32.86
2023-05-15T02:14:39.536Z,32.82
2023-05-15T02:15:39.566Z,32.88
2023-05-15T02:16:39.663Z,32.88
2023-05-15T02:17:39.677Z,32.79
2023-05-15T02:18:39.680Z,32.90
2023-05-15T02:19:39.710Z,32.89
2023-05-15T02:20:39.739Z,32.86
2023-05-15T02:21:39.746Z,32.87
2023-05-15T02:22:39.835Z,32.89
2023-05-15T02:23:39.830Z,32.89
2023-05-15T02:24:39.870Z,32.89
2023-05-15T02:25:39.900Z,32.87
2023-05-15T02:26:39.910Z,32.87
2023-05-15T02:27:39.999Z,32.87
2023-05-15T02:28:40.010Z,32.89
2023-05-15T02:29:40.022Z,32.90
2023-05-15T02:30:40.096Z,32.89
2023-05-15T02:31:40.171Z,32.87
2023-05-15T02:32:40.199Z,32.89
2023-05-15T02:33:40.203Z,32.85
2023-05-15T02:34:40.233Z,32.88
2023-05-15T02:35:40.282Z,32.88
2023-05-15T02:36:40.326Z,32.84
2023-05-15T02:37:40.385Z,32.87
2023-05-15T02:38:40.372Z,32.84
2023-05-15T02:39:40.450Z,32.88
2023-05-15T02:40:40.478Z,32.88
2023-05-15T02:41:40.492Z,32.89
2023-05-15T02:42:40.530Z,32.86
2023-05-15T02:43:40.574Z,32.88
2023-05-15T02:44:40.677Z,32.89
2023-05-15T02:45:40.695Z,32.84
2023-05-15T02:46:40.700Z,32.92
2023-05-15T02:47:40.752Z,32.86
2023-05-15T02:48:40.750Z,32.89
2023-05-15T02:49:40.805Z,32.95
2023-05-15T02:50:40.792Z,32.88
2023-05-15T02:51:40.855Z,32.88
2023-05-15T02:52:40.869Z,32.94
2023-05-15T02:53:40.956Z,32.88
2023-05-15T02:54:40.962Z,32.88
2023-05-15T02:55:41.033Z,32.89
2023-05-15T02:56:41.040Z,32.91
2023-05-15T02:57:41.106Z,32.91
2023-05-15T02:58:41.153Z,32.92
2023-05-15T02:59:41.138Z,32.91
2023-05-15T03:00:41.240Z,32.91
2023-05-15T03:01:41.253Z,32.91
2023-05-15T03:02:41.284Z,32.91
2023-05-15T03:03:41.326Z,32.88
2023-05-15T03:04:41.429Z,32.91
2023-05-15T03:05:41.401Z,32.86
2023-05-15T03:06:41.445Z,32.84
2023-05-15T03:07:41.472Z,32.92
2023-05-15T03:08:41.521Z,32.91
2023-05-15T03:09:41.526Z,32.92
2023-05-15T03:10:41.611Z,32.94
2023-05-15T03:11:41.610Z,32.86
2023-05-15T03:12:41.646Z,32.95
2023-05-15T03:13:41.697Z,32.98
2023-05-15T03:14:41.704Z,32.86
2023-05-15T03:15:41.769Z,32.89
2023-05-15T03:16:41.877Z,32.91
2023-05-15T03:17:41.880Z,32.89
2023-05-15T03:18:41.908Z,32.88
2023-05-15T03:19:41.921Z,32.93
2023-05-15T03:20:41.921Z,32.91
2023-05-15T03:21:41.959Z,32.86
2023-05-15T03:22:42.005Z,32.91
2023-05-15T03:23:42.077Z,32.89
2023-05-15T03:24:42.143Z,32.91
2023-05-15T03:25:42.168Z,32.88
2023-05-15T03:26:42.193Z,32.88
2023-05-15T03:27:42.220Z,32.89
2023-05-15T03:28:42.506Z,32.91
2023-05-15T03:29:42.313Z,32.88
2023-05-15T03:30:42.316Z,32.88
2023-05-15T03:31:42.389Z,32.89
2023-05-15T03:32:42.474Z,32.88
2023-05-15T03:33:42.474Z,32.91
2023-05-15T03:34:42.492Z,32.93
2023-05-15T03:35:42.571Z,32.89
2023-05-15T03:36:42.617Z,32.86
2023-05-15T03:37:42.636Z,32.88
2023-05-15T03:38:42.681Z,32.88
2023-05-15T03:39:42.719Z,32.85
2023-05-15T03:40:42.757Z,32.86
2023-05-15T03:41:42.801Z,32.91
2023-05-15T03:42:42.919Z,32.89
2023-05-15T03:43:42.878Z,32.95
2023-05-15T03:44:42.933Z,32.88
2023-05-15T03:45:42.993Z,32.89
2023-05-15T03:46:43.036Z,32.88
2023-05-15T03:47:43.150Z,32.88
2023-05-15T03:48:43.086Z,32.91
2023-05-15T03:49:43.101Z,32.92
2023-05-15T03:50:43.176Z,32.93
2023-05-15T03:51:43.180Z,32.88
2023-05-15T03:52:43.302Z,32.88
2023-05-15T03:53:43.297Z,32.93
2023-05-15T03:54:43.338Z,32.88
2023-05-15T03:55:43.333Z,32.90
2023-05-15T03:56:43.386Z,32.88
2023-05-15T03:57:43.445Z,32.86
2023-05-15T03:58:43.512Z,32.86
2023-05-15T03:59:43.537Z,32.90
2023-05-15T04:00:43.589Z,32.85
2023-05-15T04:01:59.334Z,32.88
2023-05-15T04:02:44.658Z,32.91
2023-05-15T04:03:43.694Z,32.98
2023-05-15T04:04:43.623Z,32.93
2023-05-15T04:05:43.782Z,32.88
2023-05-15T04:06:43.579Z,32.82
2023-05-15T04:07:43.579Z,32.79
2023-05-15T04:08:43.584Z,32.72
2023-05-15T04:09:43.539Z,32.65
2023-05-15T04:10:43.540Z,32.62
2023-05-15T04:11:43.542Z,32.65
2023-05-15T04:12:43.566Z,32.64
2023-05-15T04:13:43.612Z,32.60
2023-05-15T04:14:43.516Z,32.59
2023-05-15T04:15:43.585Z,32.49
2023-05-15T04:16:43.675Z,32.50
2023-05-15T04:17:43.687Z,32.42
2023-05-15T04:18:43.801Z,32.46
2023-05-15T04:19:43.775Z,32.46
2023-05-15T04:20:43.835Z,32.36
2023-05-15T04:21:44.819Z,32.38
2023-05-15T04:22:43.984Z,32.36
2023-05-15T04:23:43.985Z,32.34
2023-05-15T04:24:44.055Z,32.32
2023-05-15T04:25:44.102Z,32.42
2023-05-15T04:26:44.185Z,32.31
2023-05-15T04:27:44.252Z,32.31
2023-05-15T04:28:52.358Z,32.28
2023-05-15T04:29:45.284Z,32.34
2023-05-15T04:30:44.294Z,32.31
2023-05-15T04:31:44.298Z,32.28
2023-05-15T04:32:44.252Z,32.34
2023-05-15T04:33:44.237Z,32.30
2023-05-15T04:34:44.222Z,32.29
2023-05-15T04:35:44.253Z,32.28
2023-05-15T04:36:44.218Z,32.26
2023-05-15T04:37:44.214Z,32.25
2023-05-15T04:38:44.232Z,32.27
2023-05-15T04:39:44.280Z,32.27
2023-05-15T04:40:44.330Z,32.28
2023-05-15T04:41:44.389Z,32.32
2023-05-15T04:42:44.525Z,32.30
2023-05-15T04:43:44.550Z,32.28
2023-05-15T04:44:44.567Z,32.33
2023-05-15T04:45:44.689Z,32.32
2023-05-15T04:46:44.661Z,32.31
2023-05-15T04:47:44.758Z,32.27
2023-05-15T04:48:44.780Z,32.30
2023-05-15T04:49:44.824Z,32.24
2023-05-15T04:50:44.865Z,32.23
2023-05-15T04:51:44.909Z,32.17
2023-05-15T04:52:44.950Z,32.23
2023-05-15T04:53:45.037Z,32.24
2023-05-15T04:54:45.063Z,32.23
2023-05-15T04:55:45.130Z,32.24
2023-05-15T04:56:45.148Z,32.26
2023-05-15T04:57:45.222Z,32.24
2023-05-15T04:58:45.270Z,32.19
2023-05-15T04:59:45.290Z,32.20
2023-05-15T05:00:45.341Z,32.20
2023-05-15T05:01:45.424Z,32.23
2023-05-15T05:02:45.528Z,32.24
2023-05-15T05:03:45.500Z,32.27
2023-05-15T05:04:45.540Z,32.24
2023-05-15T05:05:45.564Z,32.25
2023-05-15T05:06:45.588Z,32.35
2023-05-15T05:07:45.668Z,32.27
2023-05-15T05:08:45.736Z,32.29
2023-05-15T05:09:45.759Z,32.26
2023-05-15T05:10:45.802Z,32.30
2023-05-15T05:11:45.843Z,32.26
2023-05-15T05:12:45.891Z,32.32
2023-05-15T05:13:45.933Z,32.32
2023-05-15T05:14:45.956Z,32.36
2023-05-15T05:15:46.093Z,32.30
2023-05-15T05:16:46.052Z,32.33
2023-05-15T05:17:46.103Z,32.29
2023-05-15T05:18:46.149Z,32.35
2023-05-15T05:19:46.320Z,32.32
2023-05-15T05:20:46.209Z,32.26
2023-05-15T05:21:46.312Z,32.24
2023-05-15T05:22:46.361Z,32.26
2023-05-15T05:23:46.365Z,32.19
2023-05-15T05:24:46.447Z,32.14
2023-05-15T05:25:46.564Z,32.08
2023-05-15T05:26:46.549Z,32.02
2023-05-15T05:27:46.626Z,32.01
2023-05-15T05:28:46.962Z,32.06
2023-05-15T05:29:46.651Z,32.08
2023-05-15T05:30:46.792Z,32.15
2023-05-15T05:31:46.894Z,32.16
2023-05-15T05:32:46.831Z,32.20
2023-05-15T05:33:46.842Z,32.22
2023-05-15T05:34:46.892Z,32.43
2023-05-15T05:35:47.601Z,32.61
2023-05-15T05:36:47.035Z,32.71
2023-05-15T05:37:47.025Z,33.22
2023-05-15T05:38:47.145Z,33.49
2023-05-15T05:39:47.140Z,33.63
2023-05-15T05:40:47.538Z,33.71
2023-05-15T05:41:47.261Z,33.83
2023-05-15T05:42:47.315Z,33.86
2023-05-15T05:43:48.102Z,34.19
2023-05-15T05:44:47.422Z,34.41
2023-05-15T05:45:47.569Z,34.77
2023-05-15T05:46:47.628Z,35.07
2023-05-15T05:47:47.737Z,35.12
2023-05-15T05:48:47.672Z,35.28
2023-05-15T05:49:47.786Z,35.33
2023-05-15T05:50:47.919Z,35.49
2023-05-15T05:51:47.941Z,35.48
2023-05-15T05:52:47.927Z,35.46
2023-05-15T05:53:47.982Z,35.44
2023-05-15T05:54:48.128Z,35.56
2023-05-15T05:55:48.035Z,35.45
2023-05-15T05:56:48.399Z,35.45
2023-05-15T05:57:48.096Z,35.54
2023-05-15T05:58:48.256Z,35.59
2023-05-15T05:59:48.225Z,35.60
2023-05-15T06:00:48.272Z,35.51
2023-05-15T06:01:48.414Z,35.58
2023-05-15T06:02:48.352Z,35.56
2023-05-15T06:03:48.459Z,36.00
2023-05-15T06:04:48.391Z,36.01
2023-05-15T06:05:48.398Z,35.81
2023-05-15T06:06:48.874Z,35.76
2023-05-15T06:07:48.454Z,35.78
2023-05-15T06:08:49.413Z,35.84
2023-05-15T06:09:48.548Z,35.66
2023-05-15T06:10:55.399Z,35.87
2023-05-15T06:11:48.561Z,35.86
2023-05-15T06:12:48.615Z,35.81
2023-05-15T06:13:48.477Z,35.86
2023-05-15T06:14:48.691Z,35.81
2023-05-15T06:15:48.450Z,35.76
2023-05-15T06:16:49.064Z,36.01
2023-05-15T06:17:48.546Z,35.84
2023-05-15T06:18:48.644Z,36.13
2023-05-15T06:19:48.425Z,36.00
2023-05-15T06:20:48.482Z,35.97
2023-05-15T06:21:48.907Z,35.95
2023-05-15T06:22:48.936Z,35.87
2023-05-15T06:23:48.598Z,35.82
2023-05-15T06:24:48.880Z,35.90
2023-05-15T06:25:49.185Z,35.83
2023-05-15T06:26:49.305Z,35.86
2023-05-15T06:27:48.362Z,35.82
2023-05-15T06:28:48.354Z,35.88
2023-05-15T06:29:48.394Z,35.85
2023-05-15T06:30:48.440Z,35.79
2023-05-15T06:31:50.041Z,35.80
2023-05-15T06:32:48.435Z,35.81
2023-05-15T06:33:48.438Z,35.75
2023-05-15T06:34:48.526Z,35.64
2023-05-15T06:35:48.311Z,35.51
2023-05-15T06:36:48.354Z,35.54
2023-05-15T06:37:48.662Z,35.46
2023-05-15T06:38:48.405Z,35.43
2023-05-15T06:39:48.488Z,35.40
2023-05-15T06:40:48.323Z,35.40
2023-05-15T06:41:48.280Z,35.38
2023-05-15T06:42:48.246Z,35.40
2023-05-15T06:43:48.393Z,35.33
2023-05-15T06:44:48.256Z,35.41
2023-05-15T06:45:48.267Z,35.39
2023-05-15T06:46:48.283Z,35.38
2023-05-15T06:47:48.255Z,35.36
2023-05-15T06:48:48.394Z,35.38
2023-05-15T06:49:48.216Z,35.33
2023-05-15T06:50:48.553Z,35.30
2023-05-15T06:51:48.182Z,35.37
2023-05-15T06:52:48.223Z,35.30
2023-05-15T06:53:48.254Z,35.31
2023-05-15T06:54:48.549Z,35.27
2023-05-15T06:55:48.368Z,35.23
2023-05-15T06:56:48.301Z,35.23
2023-05-15T06:57:48.293Z,35.18
2023-05-15T06:58:48.416Z,35.24
2023-05-15T06:59:48.436Z,35.28
2023-05-15T07:00:48.351Z,35.22
2023-05-15T07:01:48.424Z,35.28
2023-05-15T07:02:48.476Z,35.16
2023-05-15T07:03:48.205Z,35.19
2023-05-15T07:04:48.489Z,35.23
2023-05-15T07:05:48.302Z,35.19
2023-05-15T07:06:48.321Z,35.23
2023-05-15T07:07:48.425Z,35.21
2023-05-15T07:08:48.374Z,35.27
2023-05-15T07:09:48.483Z,35.20
2023-05-15T07:10:48.504Z,35.14
2023-05-15T07:11:48.565Z,35.21
2023-05-15T07:12:48.903Z,35.19
2023-05-15T07:13:48.975Z,35.24
2023-05-15T07:14:48.603Z,35.24
2023-05-15T07:15:48.595Z,35.20
2023-05-15T07:16:48.747Z,35.12
2023-05-15T07:17:49.105Z,35.03
2023-05-15T07:18:48.764Z,35.05
2023-05-15T07:19:48.782Z,35.06
2023-05-15T07:20:48.862Z,34.96
2023-05-15T07:21:48.899Z,34.97
2023-05-15T07:22:56.210Z,34.99
2023-05-15T07:23:49.961Z,34.97
2023-05-15T07:24:48.954Z,34.98
2023-05-15T07:25:48.943Z,34.99
2023-05-15T07:26:58.271Z,35.08
2023-05-15T07:27:49.911Z,35.00
2023-05-15T07:28:48.921Z,34.98
2023-05-15T07:29:48.938Z,35.08
2023-05-15T07:30:48.885Z,35.11
2023-05-15T07:31:48.906Z,35.31
2023-05-15T07:32:49.062Z,35.36
2023-05-15T07:33:48.938Z,34.70
2023-05-15T07:34:48.846Z,34.54
2023-05-15T07:35:48.814Z,33.69
2023-05-15T07:36:48.875Z,34.03
2023-05-15T07:37:48.870Z,33.99
2023-05-15T07:38:48.952Z,34.04
2023-05-15T07:39:49.421Z,34.16
2023-05-15T07:40:48.882Z,34.35
2023-05-15T07:41:48.967Z,34.39
2023-05-15T07:42:48.912Z,34.44
2023-05-15T07:43:49.522Z,34.44
2023-05-15T07:44:49.753Z,34.41
2023-05-15T07:45:49.197Z,34.47
2023-05-15T07:46:49.215Z,34.48
2023-05-15T07:47:49.281Z,34.41
2023-05-15T07:48:49.426Z,34.42
2023-05-15T07:49:49.316Z,34.43
2023-05-15T07:50:49.361Z,34.36
2023-05-15T07:51:49.437Z,34.35
2023-05-15T07:52:49.489Z,34.30
2023-05-15T07:53:49.480Z,34.37
2023-05-15T07:54:49.539Z,34.26
2023-05-15T07:55:49.584Z,34.32
2023-05-15T07:56:49.625Z,34.28
2023-05-15T07:57:53.336Z,34.23
2023-05-15T07:58:49.665Z,34.32
2023-05-15T07:59:49.718Z,34.30
2023-05-15T08:00:49.853Z,34.30
2023-05-15T08:01:49.642Z,34.26
2023-05-15T08:02:49.754Z,34.28
2023-05-15T08:03:49.720Z,34.29
2023-05-15T08:04:49.614Z,34.29
2023-05-15T08:05:49.585Z,34.29
2023-05-15T08:06:49.632Z,34.32
2023-05-15T08:07:49.582Z,34.28
2023-05-15T08:08:49.616Z,34.25
2023-05-15T08:09:49.604Z,34.19
2023-05-15T08:10:49.557Z,34.16
2023-05-15T08:11:49.820Z,34.17
2023-05-15T08:12:49.554Z,34.21
2023-05-15T08:13:49.627Z,34.19
2023-05-15T08:14:49.569Z,34.15
2023-05-15T08:15:49.573Z,34.17
2023-05-15T08:16:49.529Z,34.15
2023-05-15T08:17:49.586Z,34.10
2023-05-15T08:18:49.580Z,34.10
2023-05-15T08:19:49.657Z,33.97
2023-05-15T08:20:49.520Z,33.93
2023-05-15T08:21:49.524Z,34.01
2023-05-15T08:22:49.445Z,33.96
2023-05-15T08:23:49.468Z,33.99
2023-05-15T08:24:49.488Z,34.00
2023-05-15T08:25:49.464Z,34.00
2023-05-15T08:26:49.515Z,34.11
2023-05-15T08:27:49.565Z,34.06
2023-05-15T08:28:49.579Z,33.90
2023-05-15T08:29:49.511Z,33.98
2023-05-15T08:30:49.494Z,33.94
2023-05-15T08:31:49.522Z,33.79
2023-05-15T08:32:49.443Z,33.79
2023-05-15T08:33:49.439Z,33.60
2023-05-15T08:34:49.428Z,33.50
2023-05-15T08:35:49.398Z,33.16
2023-05-15T08:36:49.469Z,32.98
2023-05-15T08:37:49.369Z,32.88
2023-05-15T08:38:49.386Z,32.36
2023-05-15T08:39:49.333Z,32.59
2023-05-15T08:40:49.358Z,33.32
2023-05-15T08:41:49.357Z,33.05
2023-05-15T08:42:49.387Z,33.15
2023-05-15T08:43:49.386Z,33.22
2023-05-15T08:44:49.322Z,33.16
2023-05-15T08:45:49.493Z,33.32
2023-05-15T08:46:49.507Z,33.44
2023-05-15T08:47:49.594Z,33.66
2023-05-15T08:48:49.619Z,33.82
2023-05-15T08:49:49.514Z,33.81
2023-05-15T08:50:49.547Z,34.05
2023-05-15T08:51:49.557Z,34.10
2023-05-15T08:52:49.681Z,34.13
2023-05-15T08:53:49.587Z,34.25
2023-05-15T08:54:49.640Z,34.19
2023-05-15T08:55:49.656Z,34.22
2023-05-15T08:56:49.707Z,34.24
2023-05-15T08:57:49.706Z,34.29
2023-05-15T08:58:49.702Z,34.40
2023-05-15T08:59:49.763Z,34.42
2023-05-15T09:00:49.740Z,34.47
2023-05-15T09:01:50.095Z,34.59
2023-05-15T09:02:49.814Z,34.61
2023-05-15T09:03:49.800Z,34.58
2023-05-15T09:04:49.766Z,34.62
2023-05-15T09:05:49.782Z,34.62
2023-05-15T09:06:49.765Z,34.68
2023-05-15T09:07:49.759Z,34.69
2023-05-15T09:08:49.877Z,34.74
2023-05-15T09:09:49.846Z,34.74
2023-05-15T09:10:49.785Z,34.77
2023-05-15T09:11:49.785Z,34.85
2023-05-15T09:12:49.808Z,34.86
2023-05-15T09:13:49.766Z,34.87
2023-05-15T09:14:49.787Z,34.92
2023-05-15T09:15:49.818Z,34.94
2023-05-15T09:16:49.830Z,34.93
2023-05-15T09:17:49.827Z,34.95
2023-05-15T09:18:49.841Z,34.99
2023-05-15T09:19:49.861Z,34.98
2023-05-15T09:20:49.753Z,34.99
2023-05-15T09:21:49.787Z,34.97
2023-05-15T09:22:49.811Z,34.98
2023-05-15T09:23:49.789Z,34.95
2023-05-15T09:24:49.855Z,34.94
2023-05-15T09:25:49.859Z,34.95
2023-05-15T09:26:49.853Z,35.00
2023-05-15T09:27:49.881Z,35.31
2023-05-15T09:28:49.892Z,35.12
2023-05-15T09:29:49.839Z,34.55
2023-05-15T09:30:49.947Z,32.75
2023-05-15T09:31:50.011Z,32.38
2023-05-15T09:32:50.152Z,32.15
2023-05-15T09:33:50.029Z,31.97
2023-05-15T09:34:50.065Z,31.79
2023-05-15T09:35:50.027Z,31.65
2023-05-15T09:36:50.026Z,31.69
2023-05-15T09:37:50.044Z,31.62
2023-05-15T09:38:50.077Z,31.92
2023-05-15T09:39:50.123Z,32.35
2023-05-15T09:40:50.164Z,32.64
2023-05-15T09:41:50.216Z,32.71
2023-05-15T09:42:50.252Z,33.14
2023-05-15T09:43:50.450Z,33.19
2023-05-15T09:44:50.332Z,33.23
2023-05-15T09:45:50.400Z,33.27
2023-05-15T09:46:50.436Z,33.23
2023-05-15T09:47:50.369Z,33.16
2023-05-15T09:48:50.355Z,33.07
2023-05-15T09:49:50.318Z,33.14
2023-05-15T09:50:50.338Z,33.15
2023-05-15T09:51:50.326Z,33.15
2023-05-15T09:52:50.309Z,33.17
2023-05-15T09:53:50.317Z,33.16
2023-05-15T09:54:50.675Z,33.18
2023-05-15T09:55:50.360Z,33.20
2023-05-15T09:56:50.423Z,33.27
2023-05-15T09:57:50.530Z,33.27
2023-05-15T09:58:50.481Z,33.38
2023-05-15T09:59:50.534Z,33.25
2023-05-15T10:00:50.620Z,33.23
2023-05-15T10:01:50.680Z,33.31
2023-05-15T10:02:50.737Z,33.37
2023-05-15T10:03:50.760Z,33.40
2023-05-15T10:04:50.845Z,33.54
2023-05-15T10:05:50.972Z,33.60
2023-05-15T10:06:50.950Z,33.60
2023-05-15T10:07:50.995Z,33.55
2023-05-15T10:08:51.096Z,33.41
2023-05-15T10:09:51.118Z,33.49
2023-05-15T10:10:51.131Z,33.54
2023-05-15T10:11:51.249Z,33.53
2023-05-15T10:12:51.281Z,33.74
2023-05-15T10:13:51.339Z,33.69
2023-05-15T10:14:51.407Z,33.69
2023-05-15T10:15:51.562Z,33.65
2023-05-15T10:16:51.480Z,33.65
2023-05-15T10:17:51.590Z,33.64
2023-05-15T10:18:51.626Z,33.62
2023-05-15T10:20:51.589Z,33.56
2023-05-15T10:21:51.595Z,33.52
2023-05-15T10:22:51.575Z,33.61
2023-05-15T10:23:51.576Z,33.63
2023-05-15T10:24:51.582Z,33.87
2023-05-15T10:25:51.539Z,34.27
2023-05-15T10:26:51.526Z,34.35
2023-05-15T10:27:51.546Z,34.25
2023-05-15T10:28:51.561Z,33.79
2023-05-15T10:29:51.528Z,33.78
2023-05-15T10:30:51.482Z,33.60
2023-05-15T10:31:51.546Z,33.51
2023-05-15T10:32:51.550Z,33.49
2023-05-15T10:33:51.489Z,33.28
2023-05-15T10:34:51.473Z,33.24
2023-05-15T10:35:51.500Z,33.10
2023-05-15T10:36:51.449Z,33.07
2023-05-15T10:37:51.483Z,32.96
2023-05-15T10:38:51.503Z,32.92
2023-05-15T10:39:51.537Z,32.87
2023-05-15T10:40:51.599Z,32.87
2023-05-15T10:41:51.587Z,32.81
2023-05-15T10:42:51.666Z,32.77
2023-05-15T10:43:51.667Z,32.68
2023-05-15T10:44:51.714Z,32.68
2023-05-15T10:45:51.733Z,32.63
2023-05-15T10:46:51.769Z,32.60
2023-05-15T10:47:51.866Z,32.60
2023-05-15T10:48:51.852Z,32.53
2023-05-15T10:49:51.847Z,32.48
2023-05-15T10:50:51.883Z,32.37
2023-05-15T10:51:51.929Z,32.37
2023-05-15T10:52:51.934Z,32.30
2023-05-15T10:53:51.992Z,32.31
2023-05-15T10:54:52.016Z,32.22
2023-05-15T10:55:52.180Z,32.23
2023-05-15T10:56:52.503Z,32.21
2023-05-15T10:57:52.140Z,32.20
2023-05-15T10:58:52.156Z,32.09
2023-05-15T10:59:52.234Z,32.12
2023-05-15T11:00:52.250Z,32.08
2023-05-15T11:01:52.291Z,32.10
2023-05-15T11:02:52.344Z,32.03
2023-05-15T11:03:53.910Z,31.93
2023-05-15T11:04:52.351Z,32.02
2023-05-15T11:05:52.377Z,31.89
2023-05-15T11:06:52.381Z,31.90
2023-05-15T11:07:52.347Z,31.90
2023-05-15T11:08:52.340Z,31.90
2023-05-15T11:09:52.297Z,31.97
2023-05-15T11:10:52.299Z,31.95
2023-05-15T11:11:52.352Z,32.03
2023-05-15T11:12:52.298Z,32.02
2023-05-15T11:13:52.288Z,32.06
2023-05-15T11:14:52.297Z,32.09
2023-05-15T11:15:52.302Z,32.04
2023-05-15T11:16:52.344Z,32.07
2023-05-15T11:17:52.369Z,32.00
2023-05-15T11:18:52.391Z,32.03
2023-05-15T11:19:52.291Z,32.01
2023-05-15T11:20:52.237Z,32.08
2023-05-15T11:21:52.283Z,32.04
2023-05-15T11:22:52.212Z,32.03
2023-05-15T11:23:52.216Z,32.02
2023-05-15T11:24:52.231Z,32.09
2023-05-15T11:25:52.198Z,32.04
2023-05-15T11:26:52.191Z,32.02
2023-05-15T11:27:52.214Z,32.05
2023-05-15T11:28:52.191Z,32.02
2023-05-15T11:29:52.182Z,31.99
2023-05-15T11:30:52.233Z,32.02
2023-05-15T11:31:52.160Z,31.98
2023-05-15T11:32:52.253Z,31.98
2023-05-15T11:33:52.495Z,32.02
2023-05-15T11:34:52.178Z,32.04
2023-05-15T11:35:52.174Z,31.94
2023-05-15T11:36:52.138Z,31.95
2023-05-15T11:37:52.136Z,31.94
2023-05-15T11:38:52.180Z,31.97
2023-05-15T11:39:52.120Z,31.94
2023-05-15T11:40:52.094Z,31.95
2023-05-15T11:41:52.115Z,31.97
2023-05-15T11:42:52.094Z,31.97
2023-05-15T11:43:52.521Z,31.85
2023-05-15T11:44:52.069Z,31.98
2023-05-15T11:45:52.080Z,31.98
2023-05-15T11:46:52.074Z,31.92
2023-05-15T11:47:52.128Z,31.98
2023-05-15T11:48:52.116Z,31.95
2023-05-15T11:49:52.047Z,31.95
2023-05-15T11:50:52.025Z,31.97
2023-05-15T11:51:52.011Z,31.98
2023-05-15T11:52:52.006Z,31.98
2023-05-15T11:53:52.055Z,32.05
2023-05-15T11:54:52.027Z,31.99
2023-05-15T11:55:51.993Z,32.02
2023-05-15T11:56:52.011Z,32.01
2023-05-15T11:57:52.010Z,31.99
2023-05-15T11:58:52.076Z,32.05
2023-05-15T11:59:51.984Z,32.06
2023-05-15T12:00:51.973Z,32.01
2023-05-15T12:01:51.999Z,31.10
2023-05-15T12:02:52.164Z,31.63
2023-05-15T12:03:52.253Z,31.45
2023-05-15T12:04:52.196Z,31.60
2023-05-15T12:05:58.886Z,31.55
2023-05-15T12:06:53.119Z,31.51
2023-05-15T12:07:52.188Z,31.65
2023-05-15T12:08:52.120Z,31.78
2023-05-15T12:09:52.126Z,32.06
2023-05-15T12:10:52.133Z,32.04
2023-05-15T12:11:52.120Z,32.18
2023-05-15T12:12:52.125Z,32.08
2023-05-15T12:13:52.064Z,32.01
2023-05-15T12:14:52.054Z,32.09
2023-05-15T12:15:52.134Z,32.05
2023-05-15T12:16:52.140Z,32.02
2023-05-15T12:17:52.091Z,32.03
2023-05-15T12:18:52.206Z,31.99
2023-05-15T12:19:52.044Z,31.87
2023-05-15T12:20:52.109Z,31.89
2023-05-15T12:21:52.093Z,31.89
2023-05-15T12:22:52.179Z,31.91
2023-05-15T12:24:03.256Z,31.87
2023-05-15T12:24:53.175Z,31.89
2023-05-15T12:25:52.145Z,31.91
2023-05-15T12:26:52.149Z,31.84
2023-05-15T12:27:52.101Z,31.82
2023-05-15T12:28:52.119Z,31.79
2023-05-15T12:29:52.124Z,31.84
2023-05-15T12:30:52.110Z,31.79
2023-05-15T12:31:52.092Z,31.82
2023-05-15T12:32:52.135Z,31.72
2023-05-15T12:33:52.062Z,31.74
2023-05-15T12:34:52.053Z,31.66
2023-05-15T12:35:52.173Z,31.52
2023-05-15T12:36:52.175Z,31.57
2023-05-15T12:37:52.270Z,31.50
2023-05-15T12:38:52.304Z,31.53
2023-05-15T12:39:52.357Z,31.55
2023-05-15T12:40:52.417Z,31.48
2023-05-15T12:41:52.435Z,31.46
2023-05-15T12:42:52.516Z,31.44
2023-05-15T12:43:52.596Z,31.41
2023-05-15T12:44:52.630Z,31.34
2023-05-15T12:45:52.733Z,31.39
2023-05-15T12:46:52.676Z,31.33
2023-05-15T12:47:52.912Z,31.38
2023-05-15T12:48:52.795Z,31.34
2023-05-15T12:49:52.834Z,31.28
2023-05-15T12:50:52.888Z,31.25
2023-05-15T12:51:52.950Z,31.21
2023-05-15T12:52:52.946Z,31.13
2023-05-15T12:53:52.994Z,31.13